createdAt,value
2018-06-11T00:01:45.650Z,22.60
2018-06-11T00:04:14.202Z,22.60
2018-06-11T00:06:42.692Z,22.60
2018-06-11T00:09:11.232Z,22.50
2018-06-11T00:11:39.741Z,22.50
2018-06-11T00:16:36.532Z,22.50
2018-06-11T00:19:05.194Z,22.50
2018-06-11T00:21:34.081Z,22.50
2018-06-11T00:24:02.825Z,22.40
2018-06-11T00:26:31.353Z,22.40
2018-06-11T00:31:28.081Z,22.40
2018-06-11T00:33:56.619Z,22.40
2018-06-11T00:36:25.142Z,22.40
2018-06-11T00:38:53.712Z,22.30
2018-06-11T00:41:22.202Z,22.30
2018-06-11T00:43:50.791Z,22.30
2018-06-11T00:46:19.350Z,22.30
2018-06-11T00:48:47.907Z,22.30
2018-06-11T00:51:16.426Z,22.30
2018-06-11T00:53:44.978Z,22.30
2018-06-11T00:56:13.826Z,22.30
2018-06-11T00:58:42.312Z,22.20
2018-06-11T01:01:10.835Z,22.20
2018-06-11T01:03:39.327Z,22.20
2018-06-11T01:06:07.856Z,22.20
2018-06-11T01:08:36.358Z,22.20
2018-06-11T01:11:04.915Z,22.20
2018-06-11T01:13:33.412Z,22.20
2018-06-11T01:16:01.939Z,22.10
2018-06-11T01:18:30.438Z,22.10
2018-06-11T01:20:59.116Z,22.10
2018-06-11T01:23:27.653Z,22.10
2018-06-11T01:25:56.181Z,22.10
2018-06-11T01:28:24.717Z,22.10
2018-06-11T01:30:53.264Z,22.00
2018-06-11T01:33:21.862Z,22.00
2018-06-11T01:35:50.478Z,22.00
2018-06-11T01:38:18.985Z,22.00
2018-06-11T01:40:47.523Z,22.00
2018-06-11T01:43:16.056Z,22.00
2018-06-11T01:45:44.616Z,22.00
2018-06-11T01:48:13.123Z,21.90
2018-06-11T01:50:41.689Z,21.90
2018-06-11T01:53:10.209Z,21.90
2018-06-11T01:55:38.754Z,21.90
2018-06-11T01:58:07.268Z,21.90
2018-06-11T02:00:35.810Z,21.90
2018-06-11T02:05:32.575Z,21.80
2018-06-11T02:08:01.085Z,21.80
2018-06-11T02:10:29.797Z,21.80
2018-06-11T02:12:58.328Z,21.80
2018-06-11T02:15:26.871Z,21.80
2018-06-11T02:17:55.445Z,21.80
2018-06-11T02:20:24.048Z,21.80
2018-06-11T02:22:52.581Z,21.80
2018-06-11T02:25:21.106Z,21.70
2018-06-11T02:27:49.640Z,21.70
2018-06-11T02:30:18.181Z,21.70
2018-06-11T02:32:46.730Z,21.70
2018-06-11T02:35:15.273Z,21.70
2018-06-11T02:40:12.042Z,21.70
2018-06-11T02:42:40.578Z,21.60
2018-06-11T02:45:09.094Z,21.60
2018-06-11T02:47:37.638Z,21.60
2018-06-11T02:50:06.645Z,21.60
2018-06-11T02:52:35.334Z,21.60
2018-06-11T02:55:03.902Z,21.60
2018-06-11T02:57:32.434Z,21.60
2018-06-11T03:00:00.954Z,21.50
2018-06-11T03:02:29.590Z,21.50
2018-06-11T03:04:58.100Z,21.50
2018-06-11T03:07:26.616Z,21.50
2018-06-11T03:09:55.149Z,21.50
2018-06-11T03:12:23.671Z,21.40
2018-06-11T03:14:52.218Z,21.50
2018-06-11T03:17:20.783Z,21.40
2018-06-11T03:19:49.326Z,21.40
2018-06-11T03:22:17.976Z,21.40
2018-06-11T03:24:46.526Z,21.40
2018-06-11T03:27:15.048Z,21.40
2018-06-11T03:29:43.580Z,21.40
2018-06-11T03:32:12.098Z,21.40
2018-06-11T03:34:40.634Z,21.40
2018-06-11T03:37:09.205Z,21.30
2018-06-11T03:39:37.738Z,21.30
2018-06-11T03:42:06.294Z,21.30
2018-06-11T03:44:34.812Z,21.30
2018-06-11T03:49:31.542Z,21.30
2018-06-11T03:52:00.078Z,21.30
2018-06-11T03:54:28.641Z,21.30
2018-06-11T03:59:25.426Z,21.20
2018-06-11T04:01:53.934Z,21.20
2018-06-11T04:04:22.479Z,21.20
2018-06-11T04:06:50.997Z,21.20
2018-06-11T04:09:19.502Z,21.20
2018-06-11T04:11:48.050Z,21.20
2018-06-11T04:14:16.575Z,21.20
2018-06-11T04:16:45.142Z,21.20
2018-06-11T04:19:13.678Z,21.20
2018-06-11T04:21:42.241Z,21.20
2018-06-11T04:24:10.741Z,21.20
2018-06-11T04:26:39.271Z,21.20
2018-06-11T04:29:07.820Z,21.10
2018-06-11T04:31:36.376Z,21.10
2018-06-11T04:36:33.126Z,21.10
2018-06-11T04:39:01.642Z,21.10
2018-06-11T04:41:30.185Z,21.10
2018-06-11T04:43:58.705Z,21.10
2018-06-11T04:46:27.247Z,21.10
2018-06-11T04:48:55.760Z,21.10
2018-06-11T04:53:52.513Z,21.10
2018-06-11T04:56:21.060Z,21.10
2018-06-11T04:58:49.588Z,21.10
2018-06-11T05:01:18.182Z,21.10
2018-06-11T05:03:46.701Z,21.10
2018-06-11T05:06:15.365Z,21.10
2018-06-11T05:08:43.904Z,21.10
2018-06-11T05:11:12.455Z,21.10
2018-06-11T05:13:40.968Z,21.10
2018-06-11T05:16:09.529Z,21.10
2018-06-11T05:18:38.047Z,21.10
2018-06-11T05:21:06.725Z,21.10
2018-06-11T05:23:35.355Z,21.10
2018-06-11T05:26:03.906Z,21.10
2018-06-11T05:28:32.475Z,21.10
2018-06-11T05:31:00.985Z,21.10
2018-06-11T05:33:29.530Z,21.20
2018-06-11T05:35:58.044Z,21.20
2018-06-11T05:38:26.706Z,21.20
2018-06-11T05:40:55.268Z,21.20
2018-06-11T05:43:23.823Z,21.20
2018-06-11T05:45:52.910Z,21.20
2018-06-11T05:48:21.622Z,21.20
2018-06-11T05:50:50.175Z,21.30
2018-06-11T05:53:18.713Z,21.30
2018-06-11T05:55:47.238Z,21.30
2018-06-11T05:58:15.810Z,21.30
2018-06-11T06:00:44.342Z,21.30
2018-06-11T06:03:12.889Z,21.30
2018-06-11T06:05:41.402Z,21.30
2018-06-11T06:08:09.968Z,21.40
2018-06-11T06:10:38.677Z,21.40
2018-06-11T06:13:07.443Z,21.40
2018-06-11T06:15:36.160Z,21.50
2018-06-11T06:18:04.771Z,21.40
2018-06-11T06:20:33.306Z,21.40
2018-06-11T06:23:01.853Z,21.40
2018-06-11T06:25:32.426Z,21.50
2018-06-11T06:28:00.975Z,21.50
2018-06-11T06:30:29.499Z,21.60
2018-06-11T06:32:58.017Z,21.60
2018-06-11T06:35:26.574Z,21.60
2018-06-11T06:37:55.099Z,21.70
2018-06-11T06:40:23.660Z,21.70
2018-06-11T06:42:52.182Z,21.80
2018-06-11T06:45:20.739Z,21.80
2018-06-11T06:50:17.559Z,21.90
2018-06-11T06:52:46.185Z,21.90
2018-06-11T06:55:14.712Z,22.00
2018-06-11T06:57:43.230Z,21.90
2018-06-11T07:00:11.807Z,21.90
2018-06-11T07:02:40.475Z,22.00
2018-06-11T07:05:09.231Z,22.00
2018-06-11T07:07:37.873Z,22.00
2018-06-11T07:10:07.743Z,22.00
2018-06-11T07:12:37.995Z,22.10
2018-06-11T07:15:06.973Z,22.10
2018-06-11T07:17:37.046Z,22.10
2018-06-11T07:22:33.862Z,22.10
2018-06-11T07:25:02.418Z,22.20
2018-06-11T07:27:31.022Z,22.20
2018-06-11T07:29:59.610Z,22.20
2018-06-11T07:32:28.150Z,22.20
2018-06-11T07:34:56.736Z,22.30
2018-06-11T07:37:25.271Z,22.30
2018-06-11T07:39:53.871Z,22.30
2018-06-11T07:42:22.457Z,22.40
2018-06-11T07:44:51.009Z,22.40
2018-06-11T07:47:19.618Z,22.40
2018-06-11T07:49:48.156Z,22.50
2018-06-11T07:52:16.724Z,22.50
2018-06-11T07:54:45.251Z,22.50
2018-06-11T07:57:13.807Z,22.60
2018-06-11T07:59:42.344Z,22.60
2018-06-11T08:02:10.899Z,22.60
2018-06-11T08:04:39.526Z,22.70
2018-06-11T08:07:08.075Z,22.70
2018-06-11T08:09:36.709Z,22.70
2018-06-11T08:14:33.494Z,22.80
2018-06-11T08:17:02.193Z,22.80
2018-06-11T08:19:30.715Z,22.80
2018-06-11T08:21:59.260Z,22.90
2018-06-11T08:24:27.779Z,22.80
2018-06-11T08:26:56.331Z,22.80
2018-06-11T08:29:24.946Z,22.90
2018-06-11T08:31:53.501Z,22.90
2018-06-11T08:34:22.244Z,22.90
2018-06-11T08:36:50.798Z,22.90
2018-06-11T08:39:19.362Z,23.00
2018-06-11T08:41:47.888Z,23.00
2018-06-11T08:44:16.461Z,23.00
2018-06-11T08:46:44.982Z,23.10
2018-06-11T08:49:13.520Z,23.10
2018-06-11T08:51:42.092Z,23.50
2018-06-11T08:54:10.650Z,23.40
2018-06-11T08:56:39.209Z,23.30
2018-06-11T08:59:07.789Z,23.30
2018-06-11T09:01:36.327Z,23.30
2018-06-11T09:04:04.878Z,23.30
2018-06-11T09:06:33.472Z,23.30
2018-06-11T09:09:02.042Z,23.40
2018-06-11T09:11:30.660Z,23.40
2018-06-11T09:13:59.327Z,23.40
2018-06-11T09:16:27.874Z,23.40
2018-06-11T09:18:56.423Z,23.50
2018-06-11T09:21:24.975Z,23.50
2018-06-11T09:23:53.538Z,23.60
2018-06-11T09:26:22.071Z,23.60
2018-06-11T09:28:50.619Z,23.70
2018-06-11T09:31:19.169Z,23.80
2018-06-11T09:33:47.939Z,23.80
2018-06-11T09:36:16.493Z,23.90
2018-06-11T09:38:45.083Z,23.90
2018-06-11T09:41:13.624Z,24.00
2018-06-11T09:43:42.173Z,24.10
2018-06-11T09:46:10.720Z,24.20
2018-06-11T09:48:39.235Z,24.20
2018-06-11T09:51:07.975Z,24.80
2018-06-11T09:53:36.522Z,27.70
2018-06-11T09:56:05.089Z,29.20
2018-06-11T09:58:33.620Z,30.00
2018-06-11T10:01:02.164Z,30.30
2018-06-11T10:03:30.682Z,30.40
2018-06-11T10:05:59.221Z,30.60
2018-06-11T10:08:27.806Z,30.70
2018-06-11T10:10:56.366Z,30.80
2018-06-11T10:13:24.919Z,30.70
2018-06-11T10:15:53.465Z,30.80
2018-06-11T10:18:21.993Z,30.80
2018-06-11T10:20:50.798Z,30.90
2018-06-11T10:23:19.324Z,31.00
2018-06-11T10:25:48.048Z,31.10
2018-06-11T10:28:16.673Z,31.00
2018-06-11T10:30:45.217Z,31.10
2018-06-11T10:33:13.746Z,31.10
2018-06-11T10:35:42.289Z,31.20
2018-06-11T10:38:10.825Z,31.10
2018-06-11T10:40:39.378Z,31.10
2018-06-11T10:43:08.069Z,31.20
2018-06-11T10:45:36.634Z,31.20
2018-06-11T10:48:05.630Z,31.20
2018-06-11T10:50:34.257Z,31.20
2018-06-11T10:53:02.792Z,31.10
2018-06-11T10:55:31.309Z,31.20
2018-06-11T10:57:59.918Z,31.30
2018-06-11T11:00:28.448Z,31.30
2018-06-11T11:02:56.997Z,31.30
2018-06-11T11:05:25.545Z,31.30
2018-06-11T11:07:54.114Z,31.30
2018-06-11T11:10:22.632Z,31.30
2018-06-11T11:12:51.186Z,31.30
2018-06-11T11:15:19.915Z,31.30
2018-06-11T11:17:48.481Z,31.20
2018-06-11T11:20:17.082Z,31.10
2018-06-11T11:22:45.621Z,31.00
2018-06-11T11:25:14.153Z,31.00
2018-06-11T11:27:42.919Z,30.90
2018-06-11T11:30:11.446Z,31.00
2018-06-11T11:32:40.002Z,31.10
2018-06-11T11:35:08.529Z,31.10
2018-06-11T11:37:37.093Z,31.20
2018-06-11T11:40:05.668Z,31.20
2018-06-11T11:42:34.222Z,31.30
2018-06-11T11:45:02.741Z,31.40
2018-06-11T11:47:31.293Z,31.50
2018-06-11T11:49:59.844Z,31.50
2018-06-11T11:52:28.401Z,31.50
2018-06-11T11:54:56.987Z,31.50
2018-06-11T11:57:25.696Z,31.60
2018-06-11T11:59:54.214Z,31.60
2018-06-11T12:02:22.816Z,31.70
2018-06-11T12:04:51.351Z,31.60
2018-06-11T12:07:19.890Z,31.60
2018-06-11T12:09:48.428Z,31.60
2018-06-11T12:12:16.976Z,31.60
2018-06-11T12:14:45.491Z,31.60
2018-06-11T12:17:14.047Z,31.60
2018-06-11T12:19:42.851Z,31.40
2018-06-11T12:22:11.469Z,31.40
2018-06-11T12:24:39.990Z,31.30
2018-06-11T12:27:08.562Z,31.40
2018-06-11T12:29:37.279Z,31.40
2018-06-11T12:32:05.839Z,31.50
2018-06-11T12:34:34.383Z,31.60
2018-06-11T12:37:02.901Z,31.60
2018-06-11T12:39:31.465Z,31.50
2018-06-11T12:42:00.010Z,31.50
2018-06-11T12:44:28.583Z,31.40
2018-06-11T12:46:57.169Z,31.30
2018-06-11T12:49:25.735Z,31.20
2018-06-11T12:51:54.276Z,31.20
2018-06-11T12:54:22.833Z,31.20
2018-06-11T12:56:51.421Z,31.20
2018-06-11T12:59:19.958Z,31.20
2018-06-11T13:04:16.727Z,31.30
2018-06-11T13:06:45.355Z,31.30
2018-06-11T13:09:13.942Z,31.30
2018-06-11T13:11:42.488Z,31.20
2018-06-11T13:14:11.034Z,31.20
2018-06-11T13:16:39.583Z,31.00
2018-06-11T13:19:08.156Z,31.00
2018-06-11T13:21:36.687Z,30.90
2018-06-11T13:26:33.480Z,30.90
2018-06-11T13:29:02.044Z,30.80
2018-06-11T13:31:30.578Z,30.80
2018-06-11T13:33:59.129Z,30.80
2018-06-11T13:36:27.693Z,30.80
2018-06-11T13:38:56.242Z,30.70
2018-06-11T13:41:24.849Z,30.70
2018-06-11T13:43:53.417Z,30.70
2018-06-11T13:46:22.069Z,30.70
2018-06-11T13:48:50.618Z,30.60
2018-06-11T13:51:19.221Z,30.60
2018-06-11T13:53:47.786Z,30.60
2018-06-11T13:56:16.319Z,30.60
2018-06-11T13:58:44.856Z,30.60
2018-06-11T14:03:41.628Z,30.50
2018-06-11T14:06:10.174Z,30.50
2018-06-11T14:08:38.816Z,30.50
2018-06-11T14:11:07.367Z,30.50
2018-06-11T14:13:35.917Z,30.50
2018-06-11T14:16:04.471Z,30.40
2018-06-11T14:18:33.017Z,30.50
2018-06-11T14:21:01.574Z,30.50
2018-06-11T14:23:30.105Z,30.50
2018-06-11T14:25:58.656Z,30.50
2018-06-11T14:28:27.194Z,30.50
2018-06-11T14:30:56.102Z,30.50
2018-06-11T14:33:24.636Z,30.50
2018-06-11T14:35:54.208Z,30.50
2018-06-11T14:38:22.756Z,30.40
2018-06-11T14:40:51.315Z,30.50
2018-06-11T14:43:19.842Z,30.50
2018-06-11T14:45:48.550Z,30.50
2018-06-11T14:48:17.094Z,30.50
2018-06-11T14:50:45.668Z,30.50
2018-06-11T14:53:14.213Z,30.50
2018-06-11T14:55:43.447Z,30.40
2018-06-11T14:58:12.137Z,30.40
2018-06-11T15:00:40.571Z,30.40
2018-06-11T15:03:09.634Z,30.30
2018-06-11T15:05:38.553Z,30.30
2018-06-11T15:08:07.414Z,30.30
2018-06-11T15:10:36.084Z,30.30
2018-06-11T15:13:04.626Z,30.20
2018-06-11T15:15:33.228Z,30.20
2018-06-11T15:18:01.934Z,30.10
2018-06-11T15:20:30.742Z,30.10
2018-06-11T15:22:59.446Z,30.10
2018-06-11T15:25:28.879Z,30.00
2018-06-11T15:27:57.410Z,30.00
2018-06-11T15:30:26.049Z,30.00
2018-06-11T15:32:54.989Z,29.90
2018-06-11T15:35:23.540Z,28.40
2018-06-11T15:37:52.344Z,27.80
2018-06-11T15:40:21.352Z,27.70
2018-06-11T15:42:49.969Z,27.80
2018-06-11T15:45:18.777Z,27.80
2018-06-11T15:47:47.398Z,27.90
2018-06-11T15:50:16.350Z,27.80
2018-06-11T15:52:44.862Z,27.80
2018-06-11T15:57:41.810Z,27.80
2018-06-11T16:02:39.149Z,27.70
2018-06-11T16:05:07.943Z,27.70
2018-06-11T16:07:36.686Z,27.70
2018-06-11T16:10:05.257Z,27.60
2018-06-11T16:12:35.101Z,27.60
2018-06-11T16:15:03.705Z,27.60
2018-06-11T16:17:32.298Z,27.50
2018-06-11T16:20:01.002Z,27.50
2018-06-11T16:22:29.574Z,27.40
2018-06-11T16:24:58.178Z,27.40
2018-06-11T16:29:55.113Z,28.40
2018-06-11T16:32:23.675Z,29.10
2018-06-11T16:34:52.202Z,29.60
2018-06-11T16:37:20.763Z,29.90
2018-06-11T16:39:49.294Z,30.20
2018-06-11T16:42:17.922Z,30.40
2018-06-11T16:44:46.471Z,30.50
2018-06-11T16:47:15.034Z,30.60
2018-06-11T16:49:43.577Z,30.70
2018-06-11T16:52:12.161Z,30.80
2018-06-11T16:54:40.729Z,30.80
2018-06-11T16:57:09.278Z,30.90
2018-06-11T16:59:38.162Z,30.90
2018-06-11T17:02:06.958Z,30.90
2018-06-11T17:04:35.500Z,30.90
2018-06-11T17:07:04.066Z,30.90
2018-06-11T17:09:33.155Z,30.90
2018-06-11T17:12:01.852Z,30.90
2018-06-11T17:14:30.389Z,30.90
2018-06-11T17:16:59.001Z,30.90
2018-06-11T17:19:28.007Z,30.90
2018-06-11T17:21:56.620Z,30.90
2018-06-11T17:24:25.308Z,30.80
2018-06-11T17:26:53.880Z,30.80
2018-06-11T17:29:22.403Z,30.70
2018-06-11T17:34:19.307Z,30.70
2018-06-11T17:36:47.920Z,30.70
2018-06-11T17:39:16.462Z,30.70
2018-06-11T17:41:44.991Z,30.60
2018-06-11T17:44:13.571Z,30.50
2018-06-11T17:46:42.134Z,30.50
2018-06-11T17:49:10.674Z,30.50
2018-06-11T17:51:39.411Z,30.50
2018-06-11T17:54:09.211Z,30.50
2018-06-11T17:56:37.761Z,30.40
2018-06-11T17:59:06.331Z,30.40
2018-06-11T18:01:34.877Z,30.30
2018-06-11T18:04:03.568Z,30.30
2018-06-11T18:06:32.083Z,30.20
2018-06-11T18:11:28.827Z,30.10
2018-06-11T18:13:57.373Z,30.00
2018-06-11T18:16:25.914Z,30.00
2018-06-11T18:18:55.097Z,29.90
2018-06-11T18:21:23.656Z,29.90
2018-06-11T18:23:52.233Z,29.80
2018-06-11T18:26:20.781Z,29.80
2018-06-11T18:28:49.343Z,29.70
2018-06-11T18:33:46.146Z,29.70
2018-06-11T18:36:14.673Z,29.60
2018-06-11T18:38:43.235Z,29.60
2018-06-11T18:41:11.767Z,29.50
2018-06-11T18:43:40.389Z,29.50
2018-06-11T18:46:09.073Z,29.50
2018-06-11T18:48:37.635Z,29.50
2018-06-11T18:51:06.203Z,29.40
2018-06-11T18:53:34.759Z,29.40
2018-06-11T18:56:03.302Z,29.40
2018-06-11T18:58:31.871Z,29.30
2018-06-11T19:01:00.423Z,29.30
2018-06-11T19:03:29.099Z,29.20
2018-06-11T19:05:57.774Z,29.20
2018-06-11T19:08:26.351Z,29.20
2018-06-11T19:10:54.874Z,29.10
2018-06-11T19:13:23.462Z,29.10
2018-06-11T19:15:51.974Z,29.00
2018-06-11T19:18:20.519Z,29.00
2018-06-11T19:20:49.085Z,29.00
2018-06-11T19:23:17.622Z,28.90
2018-06-11T19:25:46.189Z,28.90
2018-06-11T19:28:14.734Z,28.80
2018-06-11T19:30:43.307Z,28.80
2018-06-11T19:33:11.861Z,28.80
2018-06-11T19:35:40.415Z,28.70
2018-06-11T19:38:08.935Z,28.70
2018-06-11T19:40:37.661Z,28.70
2018-06-11T19:43:06.385Z,28.60
2018-06-11T19:45:34.949Z,28.50
2018-06-11T19:48:03.494Z,28.50
2018-06-11T19:50:32.069Z,28.50
2018-06-11T19:53:00.609Z,28.50
2018-06-11T19:57:57.364Z,28.40
2018-06-11T20:00:25.973Z,28.40
2018-06-11T20:02:54.562Z,28.30
2018-06-11T20:05:23.140Z,28.30
2018-06-11T20:07:51.664Z,28.20
2018-06-11T20:10:20.235Z,28.20
2018-06-11T20:12:48.782Z,28.10
2018-06-11T20:15:17.342Z,28.10
2018-06-11T20:17:45.853Z,28.10
2018-06-11T20:20:14.399Z,28.10
2018-06-11T20:22:42.931Z,28.00
2018-06-11T20:25:11.512Z,28.00
2018-06-11T20:27:40.159Z,28.00
2018-06-11T20:30:09.089Z,27.90
2018-06-11T20:32:37.674Z,27.80
2018-06-11T20:35:06.220Z,27.80
2018-06-11T20:37:34.781Z,27.80
2018-06-11T20:40:03.414Z,27.80
2018-06-11T20:42:32.818Z,27.70
2018-06-11T20:45:01.355Z,27.70
2018-06-11T20:47:29.904Z,27.70
2018-06-11T20:49:58.584Z,27.60
2018-06-11T20:52:27.168Z,27.60
2018-06-11T20:54:55.737Z,27.60
2018-06-11T20:59:52.515Z,27.50
2018-06-11T21:02:21.098Z,27.50
2018-06-11T21:04:49.643Z,27.40
2018-06-11T21:07:18.213Z,27.40
2018-06-11T21:09:46.733Z,27.40
2018-06-11T21:14:43.590Z,27.30
2018-06-11T21:17:12.154Z,27.30
2018-06-11T21:19:40.672Z,27.30
2018-06-11T21:22:09.218Z,27.20
2018-06-11T21:24:37.729Z,27.20
2018-06-11T21:27:06.469Z,27.20
2018-06-11T21:29:35.010Z,27.10
2018-06-11T21:32:03.581Z,27.10
2018-06-11T21:37:00.389Z,27.00
2018-06-11T21:39:29.061Z,27.00
2018-06-11T21:41:57.735Z,26.90
2018-06-11T21:44:26.246Z,26.90
2018-06-11T21:46:54.800Z,26.90
2018-06-11T21:49:23.349Z,26.90
2018-06-11T21:51:51.951Z,26.80
2018-06-11T21:54:20.477Z,26.80
2018-06-11T21:56:49.070Z,26.80
2018-06-11T21:59:17.598Z,26.70
2018-06-11T22:01:46.153Z,26.70
2018-06-11T22:04:14.691Z,26.70
2018-06-11T22:06:43.241Z,26.60
2018-06-11T22:09:12.459Z,26.60
2018-06-11T22:11:41.636Z,26.60
2018-06-11T22:14:10.267Z,26.50
2018-06-11T22:16:38.818Z,26.50
2018-06-11T22:19:07.350Z,26.50
2018-06-11T22:21:35.912Z,26.50
2018-06-11T22:24:04.472Z,26.40
2018-06-11T22:26:33.019Z,26.40
2018-06-11T22:29:01.565Z,26.40
2018-06-11T22:31:30.132Z,26.30
2018-06-11T22:33:58.676Z,26.30
2018-06-11T22:36:27.217Z,26.30
2018-06-11T22:38:55.857Z,26.30
2018-06-11T22:41:24.380Z,26.30
2018-06-11T22:43:52.902Z,26.20
2018-06-11T22:46:21.508Z,26.20
2018-06-11T22:48:50.653Z,26.20
2018-06-11T22:51:19.306Z,26.10
2018-06-11T22:53:47.839Z,26.10
2018-06-11T22:56:16.424Z,26.10
2018-06-11T22:58:44.954Z,26.10
2018-06-11T23:01:13.473Z,26.00
2018-06-11T23:03:42.054Z,26.00
2018-06-11T23:06:10.719Z,26.00
2018-06-11T23:08:39.269Z,25.90
2018-06-11T23:11:07.793Z,25.90
2018-06-11T23:13:36.357Z,25.90
2018-06-11T23:16:04.894Z,25.80
2018-06-11T23:18:33.485Z,25.80
2018-06-11T23:21:02.020Z,25.80
2018-06-11T23:23:30.600Z,25.70
2018-06-11T23:25:59.110Z,25.70
2018-06-11T23:28:27.662Z,25.70
2018-06-11T23:30:56.261Z,25.60
2018-06-11T23:33:24.827Z,25.70
2018-06-11T23:35:53.385Z,25.60
2018-06-11T23:38:21.937Z,25.60
2018-06-11T23:40:50.474Z,25.60
2018-06-11T23:43:19.046Z,25.50
2018-06-11T23:45:47.576Z,25.50
2018-06-11T23:48:16.131Z,25.50
2018-06-11T23:50:44.713Z,25.50
2018-06-11T23:53:14.261Z,25.40
2018-06-11T23:55:42.868Z,25.40
2018-06-11T23:58:11.438Z,25.40
